Terminal Aerodrome Forecast
Issued by NWS Wilmington, NC

Home | Current Version | Previous Version | Text Only | Print | Product List | Glossary On
Versions: 1 2 3 4 5 6 7 8 9 10 11 12 13 14
100
FTUS42 KILM 221720 CCA
TAFMYR
TAF COR
KMYR 221720Z 2218/2318 12004KT P6SM VCSH BKN040 BKN200
     FM230100 19006KT 5SM BR BKN012
      TEMPO 2303/2307 1SM BR BKN003
     FM230700 20010KT 5SM BR VCSH BKN006
     FM231000 21012KT 4SM SHRA BKN007
      TEMPO 2310/2314 2SM TSRA BKN006CB
     FM231600 22018G25KT P6SM VCSH BKN008=

USA.gov is the U.S. government's official web portal to all federal, state and local government web resources and services.